createdAt,value
2023-05-18T00:03:08.312Z,1018.504
2023-05-18T00:23:08.000Z,1018.518
2023-05-18T00:43:07.792Z,1018.523
2023-05-18T01:03:09.205Z,1018.53
2023-05-18T01:23:07.314Z,1018.557
2023-05-18T01:43:08.037Z,1018.524
2023-05-18T02:03:09.274Z,1018.509
2023-05-18T02:23:07.337Z,1018.544
2023-05-18T02:43:08.123Z,1018.622
2023-05-18T03:03:09.632Z,1018.653
2023-05-18T03:23:07.622Z,1018.77
2023-05-18T03:43:07.444Z,1018.815
2023-05-18T04:03:08.540Z,1018.861
2023-05-18T04:23:07.719Z,1018.903
2023-05-18T04:43:07.809Z,1018.956
2023-05-18T05:03:08.952Z,1018.924
2023-05-18T05:23:08.257Z,1018.94
2023-05-18T05:43:08.144Z,1019.138
2023-05-18T06:03:09.184Z,1019.216
2023-05-18T06:23:08.279Z,1019.287
2023-05-18T06:43:08.112Z,1019.341
2023-05-18T07:03:09.426Z,1019.505
2023-05-18T07:23:07.434Z,1019.469
2023-05-18T07:43:07.484Z,1019.466
2023-05-18T08:03:08.654Z,1019.414
2023-05-18T08:23:07.677Z,1019.358
2023-05-18T08:43:07.759Z,1019.186
2023-05-18T09:03:08.979Z,1019.141
2023-05-18T09:23:07.921Z,1018.884
2023-05-18T09:43:07.918Z,1018.808
2023-05-18T10:03:08.939Z,1018.881
2023-05-18T10:23:08.040Z,1018.688
2023-05-18T10:43:07.978Z,1018.654
2023-05-18T11:03:09.314Z,1018.482
2023-05-18T11:23:07.243Z,1018.347
2023-05-18T11:43:07.233Z,1018.287
2023-05-18T12:03:08.806Z,1018.107
2023-05-18T12:23:07.907Z,1017.977
2023-05-18T12:43:07.904Z,1017.761
2023-05-18T13:03:15.567Z,1017.641
2023-05-18T13:23:08.028Z,1017.531
2023-05-18T13:43:08.781Z,1017.348
2023-05-18T14:03:09.671Z,1017.081
2023-05-18T14:23:10.333Z,1016.861
2023-05-18T14:43:07.292Z,1016.905
2023-05-18T15:03:08.611Z,1016.784
2023-05-18T15:23:07.499Z,1016.689
2023-05-18T15:43:07.601Z,1016.669
2023-05-18T16:03:08.920Z,1016.515
2023-05-18T16:23:07.968Z,1016.415
2023-05-18T16:43:07.934Z,1016.43
2023-05-18T17:03:09.393Z,1016.481
2023-05-18T17:23:07.349Z,1016.531
2023-05-18T17:43:07.521Z,1016.484
2023-05-18T18:03:08.953Z,1016.562
2023-05-18T18:23:07.883Z,1016.581
2023-05-18T18:43:08.045Z,1016.764
2023-05-18T19:03:09.128Z,1016.849
2023-05-18T19:23:08.255Z,1017.128
2023-05-18T19:43:07.340Z,1017.271
2023-05-18T20:03:08.472Z,1017.3
2023-05-18T20:23:07.548Z,1017.402
2023-05-18T20:43:07.731Z,1017.524
2023-05-18T21:03:09.072Z,1017.641
2023-05-18T21:23:08.175Z,1017.604
2023-05-18T21:43:07.407Z,1017.649
2023-05-18T22:03:09.219Z,1017.656
2023-05-18T22:23:08.025Z,1017.563
2023-05-18T22:43:07.799Z,1017.457
2023-05-18T23:03:08.952Z,1017.42
2023-05-18T23:23:07.844Z,1017.441
2023-05-18T23:43:07.778Z,1017.43
